sensor_id;sensor_type;location;lat;lon;timestamp;P1;durP1;ratioP1;P2;durP2;ratioP2
5730;SDS011;2890;51.950;7.668;2022-08-25T00:00:44;3.45;;;3.15;;
5730;SDS011;2890;51.950;7.668;2022-08-25T00:03:13;5.55;;;2.90;;
5730;SDS011;2890;51.950;7.668;2022-08-25T00:05:40;5.43;;;3.00;;
5730;SDS011;2890;51.950;7.668;2022-08-25T00:08:07;4.95;;;2.75;;
5730;SDS011;2890;51.950;7.668;2022-08-25T00:10:35;4.22;;;2.40;;
5730;SDS011;2890;51.950;7.668;2022-08-25T00:13:04;2.65;;;2.30;;
5730;SDS011;2890;51.950;7.668;2022-08-25T00:15:31;4.05;;;2.08;;
5730;SDS011;2890;51.950;7.668;2022-08-25T00:17:59;5.20;;;2.75;;
5730;SDS011;2890;51.950;7.668;2022-08-25T00:20:26;5.97;;;2.85;;
5730;SDS011;2890;51.950;7.668;2022-08-25T00:22:54;3.45;;;2.47;;
5730;SDS011;2890;51.950;7.668;2022-08-25T00:25:21;3.25;;;2.30;;
5730;SDS011;2890;51.950;7.668;2022-08-25T00:27:48;3.25;;;2.97;;
5730;SDS011;2890;51.950;7.668;2022-08-25T00:30:16;6.03;;;2.78;;
5730;SDS011;2890;51.950;7.668;2022-08-25T00:32:44;5.30;;;2.50;;
5730;SDS011;2890;51.950;7.668;2022-08-25T00:35:12;5.50;;;2.70;;
5730;SDS011;2890;51.950;7.668;2022-08-25T00:37:39;3.22;;;2.92;;
5730;SDS011;2890;51.950;7.668;2022-08-25T00:40:07;3.83;;;2.97;;
5730;SDS011;2890;51.950;7.668;2022-08-25T00:42:34;2.90;;;2.67;;
5730;SDS011;2890;51.950;7.668;2022-08-25T00:45:02;5.55;;;2.83;;
5730;SDS011;2890;51.950;7.668;2022-08-25T00:47:31;6.97;;;2.50;;
5730;SDS011;2890;51.950;7.668;2022-08-25T00:49:58;5.45;;;2.80;;
5730;SDS011;2890;51.950;7.668;2022-08-25T00:52:29;7.05;;;2.42;;
5730;SDS011;2890;51.950;7.668;2022-08-25T00:54:59;2.95;;;2.72;;
5730;SDS011;2890;51.950;7.668;2022-08-25T00:57:29;3.40;;;2.60;;
5730;SDS011;2890;51.950;7.668;2022-08-25T00:59:59;4.63;;;3.08;;
5730;SDS011;2890;51.950;7.668;2022-08-25T01:02:27;3.83;;;2.83;;
5730;SDS011;2890;51.950;7.668;2022-08-25T01:04:55;2.55;;;2.33;;
5730;SDS011;2890;51.950;7.668;2022-08-25T01:07:22;4.20;;;3.20;;
5730;SDS011;2890;51.950;7.668;2022-08-25T01:09:49;3.28;;;2.80;;
5730;SDS011;2890;51.950;7.668;2022-08-25T01:12:18;4.18;;;3.25;;
5730;SDS011;2890;51.950;7.668;2022-08-25T01:14:45;4.40;;;2.65;;
5730;SDS011;2890;51.950;7.668;2022-08-25T01:17:14;7.03;;;2.78;;
5730;SDS011;2890;51.950;7.668;2022-08-25T01:19:41;4.03;;;3.42;;
5730;SDS011;2890;51.950;7.668;2022-08-25T01:22:09;5.13;;;2.80;;
5730;SDS011;2890;51.950;7.668;2022-08-25T01:24:37;3.55;;;3.25;;
5730;SDS011;2890;51.950;7.668;2022-08-25T01:27:10;5.40;;;3.55;;
5730;SDS011;2890;51.950;7.668;2022-08-25T01:29:37;3.38;;;3.08;;
5730;SDS011;2890;51.950;7.668;2022-08-25T01:32:05;6.28;;;2.70;;
5730;SDS011;2890;51.950;7.668;2022-08-25T01:34:35;3.72;;;3.28;;
5730;SDS011;2890;51.950;7.668;2022-08-25T01:37:03;3.75;;;2.50;;
5730;SDS011;2890;51.950;7.668;2022-08-25T01:39:31;4.97;;;2.65;;
5730;SDS011;2890;51.950;7.668;2022-08-25T01:44:58;6.30;;;2.92;;
5730;SDS011;2890;51.950;7.668;2022-08-25T01:47:25;5.60;;;3.20;;
5730;SDS011;2890;51.950;7.668;2022-08-25T01:49:52;6.43;;;2.80;;
5730;SDS011;2890;51.950;7.668;2022-08-25T01:52:19;4.22;;;2.75;;
5730;SDS011;2890;51.950;7.668;2022-08-25T01:54:50;3.13;;;2.83;;
5730;SDS011;2890;51.950;7.668;2022-08-25T01:57:17;3.38;;;2.50;;
5730;SDS011;2890;51.950;7.668;2022-08-25T01:59:44;3.05;;;2.65;;
5730;SDS011;2890;51.950;7.668;2022-08-25T02:02:11;4.32;;;2.60;;
5730;SDS011;2890;51.950;7.668;2022-08-25T02:04:38;5.38;;;2.85;;
5730;SDS011;2890;51.950;7.668;2022-08-25T02:07:05;5.50;;;2.88;;
5730;SDS011;2890;51.950;7.668;2022-08-25T02:09:33;4.60;;;2.88;;
5730;SDS011;2890;51.950;7.668;2022-08-25T02:12:04;3.53;;;2.95;;
5730;SDS011;2890;51.950;7.668;2022-08-25T02:14:33;4.00;;;2.88;;
5730;SDS011;2890;51.950;7.668;2022-08-25T02:17:00;3.25;;;2.90;;
5730;SDS011;2890;51.950;7.668;2022-08-25T02:19:28;6.00;;;3.55;;
5730;SDS011;2890;51.950;7.668;2022-08-25T02:21:55;6.47;;;2.90;;
5730;SDS011;2890;51.950;7.668;2022-08-25T02:24:22;4.35;;;3.00;;
5730;SDS011;2890;51.950;7.668;2022-08-25T02:26:48;2.60;;;2.40;;
5730;SDS011;2890;51.950;7.668;2022-08-25T02:29:17;5.05;;;2.92;;
5730;SDS011;2890;51.950;7.668;2022-08-25T02:31:44;3.67;;;3.22;;
5730;SDS011;2890;51.950;7.668;2022-08-25T02:34:11;6.10;;;3.13;;
5730;SDS011;2890;51.950;7.668;2022-08-25T02:36:39;4.82;;;2.90;;
5730;SDS011;2890;51.950;7.668;2022-08-25T02:39:06;5.32;;;3.25;;
5730;SDS011;2890;51.950;7.668;2022-08-25T02:41:35;3.92;;;2.92;;
5730;SDS011;2890;51.950;7.668;2022-08-25T02:44:03;10.25;;;3.35;;
5730;SDS011;2890;51.950;7.668;2022-08-25T02:46:32;3.15;;;2.38;;
5730;SDS011;2890;51.950;7.668;2022-08-25T02:48:59;5.85;;;3.30;;
5730;SDS011;2890;51.950;7.668;2022-08-25T02:51:26;3.63;;;2.80;;
5730;SDS011;2890;51.950;7.668;2022-08-25T02:53:54;3.05;;;2.72;;
5730;SDS011;2890;51.950;7.668;2022-08-25T02:56:22;5.07;;;3.22;;
5730;SDS011;2890;51.950;7.668;2022-08-25T02:58:49;6.90;;;3.00;;
5730;SDS011;2890;51.950;7.668;2022-08-25T03:01:16;4.13;;;2.70;;
5730;SDS011;2890;51.950;7.668;2022-08-25T03:03:45;4.97;;;3.53;;
5730;SDS011;2890;51.950;7.668;2022-08-25T03:06:13;4.32;;;2.88;;
5730;SDS011;2890;51.950;7.668;2022-08-25T03:08:43;4.57;;;3.50;;
5730;SDS011;2890;51.950;7.668;2022-08-25T03:11:10;3.72;;;2.60;;
5730;SDS011;2890;51.950;7.668;2022-08-25T03:13:37;3.65;;;3.35;;
5730;SDS011;2890;51.950;7.668;2022-08-25T03:16:05;3.75;;;3.10;;
5730;SDS011;2890;51.950;7.668;2022-08-25T03:18:33;4.78;;;3.13;;
5730;SDS011;2890;51.950;7.668;2022-08-25T03:21:01;3.63;;;3.08;;
5730;SDS011;2890;51.950;7.668;2022-08-25T03:23:28;5.88;;;2.47;;
5730;SDS011;2890;51.950;7.668;2022-08-25T03:25:55;3.83;;;3.10;;
5730;SDS011;2890;51.950;7.668;2022-08-25T03:28:39;3.30;;;3.08;;
5730;SDS011;2890;51.950;7.668;2022-08-25T03:31:06;3.05;;;2.47;;
5730;SDS011;2890;51.950;7.668;2022-08-25T03:33:34;5.53;;;3.28;;
5730;SDS011;2890;51.950;7.668;2022-08-25T03:36:03;5.10;;;3.45;;
5730;SDS011;2890;51.950;7.668;2022-08-25T03:38:31;5.47;;;2.40;;
5730;SDS011;2890;51.950;7.668;2022-08-25T03:40:58;6.43;;;3.08;;
5730;SDS011;2890;51.950;7.668;2022-08-25T03:43:26;4.20;;;3.83;;
5730;SDS011;2890;51.950;7.668;2022-08-25T03:45:52;6.88;;;3.33;;
5730;SDS011;2890;51.950;7.668;2022-08-25T03:48:19;5.65;;;3.13;;
5730;SDS011;2890;51.950;7.668;2022-08-25T03:50:47;4.38;;;3.97;;
5730;SDS011;2890;51.950;7.668;2022-08-25T03:53:16;5.50;;;3.70;;
5730;SDS011;2890;51.950;7.668;2022-08-25T03:55:43;6.80;;;3.08;;
5730;SDS011;2890;51.950;7.668;2022-08-25T03:58:09;3.92;;;3.55;;
5730;SDS011;2890;51.950;7.668;2022-08-25T04:00:36;5.78;;;3.60;;
5730;SDS011;2890;51.950;7.668;2022-08-25T04:03:03;5.07;;;3.33;;
5730;SDS011;2890;51.950;7.668;2022-08-25T04:05:30;7.80;;;3.45;;
5730;SDS011;2890;51.950;7.668;2022-08-25T04:07:57;4.70;;;3.08;;
5730;SDS011;2890;51.950;7.668;2022-08-25T04:10:26;5.93;;;3.08;;
5730;SDS011;2890;51.950;7.668;2022-08-25T04:12:53;5.78;;;3.08;;
5730;SDS011;2890;51.950;7.668;2022-08-25T04:15:20;5.43;;;3.90;;
5730;SDS011;2890;51.950;7.668;2022-08-25T04:17:48;5.32;;;3.28;;
5730;SDS011;2890;51.950;7.668;2022-08-25T04:20:15;6.60;;;3.63;;
5730;SDS011;2890;51.950;7.668;2022-08-25T04:22:42;6.18;;;4.53;;
5730;SDS011;2890;51.950;7.668;2022-08-25T04:25:09;5.03;;;3.35;;
5730;SDS011;2890;51.950;7.668;2022-08-25T04:27:37;6.00;;;4.03;;
5730;SDS011;2890;51.950;7.668;2022-08-25T04:30:04;6.18;;;3.42;;
5730;SDS011;2890;51.950;7.668;2022-08-25T04:32:32;3.58;;;2.88;;
5730;SDS011;2890;51.950;7.668;2022-08-25T04:35:01;5.70;;;3.78;;
5730;SDS011;2890;51.950;7.668;2022-08-25T04:37:29;6.82;;;3.40;;
5730;SDS011;2890;51.950;7.668;2022-08-25T04:39:57;6.45;;;3.50;;
5730;SDS011;2890;51.950;7.668;2022-08-25T04:42:24;5.00;;;3.38;;
5730;SDS011;2890;51.950;7.668;2022-08-25T04:44:52;5.00;;;4.10;;
5730;SDS011;2890;51.950;7.668;2022-08-25T04:47:19;6.40;;;3.50;;
5730;SDS011;2890;51.950;7.668;2022-08-25T04:49:46;5.55;;;3.85;;
5730;SDS011;2890;51.950;7.668;2022-08-25T04:52:13;4.45;;;3.80;;
5730;SDS011;2890;51.950;7.668;2022-08-25T04:54:40;4.03;;;3.17;;
5730;SDS011;2890;51.950;7.668;2022-08-25T04:57:06;7.57;;;3.63;;
5730;SDS011;2890;51.950;7.668;2022-08-25T04:59:33;4.72;;;3.72;;
5730;SDS011;2890;51.950;7.668;2022-08-25T05:02:02;4.75;;;4.28;;
5730;SDS011;2890;51.950;7.668;2022-08-25T05:04:30;5.68;;;4.22;;
5730;SDS011;2890;51.950;7.668;2022-08-25T05:06:58;5.40;;;3.25;;
5730;SDS011;2890;51.950;7.668;2022-08-25T05:09:25;5.43;;;3.63;;
5730;SDS011;2890;51.950;7.668;2022-08-25T05:11:53;5.47;;;4.43;;
5730;SDS011;2890;51.950;7.668;2022-08-25T05:14:20;5.05;;;4.50;;
5730;SDS011;2890;51.950;7.668;2022-08-25T05:16:47;5.57;;;4.55;;
5730;SDS011;2890;51.950;7.668;2022-08-25T05:19:15;5.22;;;4.00;;
5730;SDS011;2890;51.950;7.668;2022-08-25T05:21:42;5.97;;;3.72;;
5730;SDS011;2890;51.950;7.668;2022-08-25T05:24:09;6.22;;;5.10;;
5730;SDS011;2890;51.950;7.668;2022-08-25T05:26:36;5.28;;;3.95;;
5730;SDS011;2890;51.950;7.668;2022-08-25T05:29:03;12.98;;;4.25;;
5730;SDS011;2890;51.950;7.668;2022-08-25T05:31:30;10.90;;;5.10;;
5730;SDS011;2890;51.950;7.668;2022-08-25T05:33:57;48.78;;;8.82;;
5730;SDS011;2890;51.950;7.668;2022-08-25T05:36:26;9.35;;;4.47;;
5730;SDS011;2890;51.950;7.668;2022-08-25T05:38:54;6.93;;;4.00;;
5730;SDS011;2890;51.950;7.668;2022-08-25T05:41:24;7.05;;;4.72;;
5730;SDS011;2890;51.950;7.668;2022-08-25T05:43:53;9.23;;;4.45;;
5730;SDS011;2890;51.950;7.668;2022-08-25T05:46:20;7.00;;;4.47;;
5730;SDS011;2890;51.950;7.668;2022-08-25T05:48:47;8.18;;;5.15;;
5730;SDS011;2890;51.950;7.668;2022-08-25T05:51:14;5.55;;;4.45;;
5730;SDS011;2890;51.950;7.668;2022-08-25T05:53:44;4.95;;;4.55;;
5730;SDS011;2890;51.950;7.668;2022-08-25T05:56:12;5.03;;;4.53;;
5730;SDS011;2890;51.950;7.668;2022-08-25T05:58:39;7.05;;;4.82;;
5730;SDS011;2890;51.950;7.668;2022-08-25T06:01:07;10.40;;;4.60;;
5730;SDS011;2890;51.950;7.668;2022-08-25T06:03:48;5.50;;;4.60;;
5730;SDS011;2890;51.950;7.668;2022-08-25T06:06:18;6.05;;;4.18;;
5730;SDS011;2890;51.950;7.668;2022-08-25T06:08:46;3.97;;;3.67;;
5730;SDS011;2890;51.950;7.668;2022-08-25T06:11:13;5.45;;;3.80;;
5730;SDS011;2890;51.950;7.668;2022-08-25T06:13:40;6.65;;;4.65;;
5730;SDS011;2890;51.950;7.668;2022-08-25T06:16:07;5.78;;;4.43;;
5730;SDS011;2890;51.950;7.668;2022-08-25T06:18:33;6.35;;;4.63;;
5730;SDS011;2890;51.950;7.668;2022-08-25T06:21:05;7.68;;;4.38;;
5730;SDS011;2890;51.950;7.668;2022-08-25T06:23:33;8.60;;;3.83;;
5730;SDS011;2890;51.950;7.668;2022-08-25T06:26:03;4.57;;;3.90;;
5730;SDS011;2890;51.950;7.668;2022-08-25T06:28:30;5.20;;;4.40;;
5730;SDS011;2890;51.950;7.668;2022-08-25T06:30:57;8.05;;;3.42;;
5730;SDS011;2890;51.950;7.668;2022-08-25T06:33:24;5.18;;;3.17;;
5730;SDS011;2890;51.950;7.668;2022-08-25T06:35:52;7.13;;;3.42;;
5730;SDS011;2890;51.950;7.668;2022-08-25T06:38:19;6.35;;;4.18;;
5730;SDS011;2890;51.950;7.668;2022-08-25T06:40:46;6.93;;;3.70;;
5730;SDS011;2890;51.950;7.668;2022-08-25T06:43:15;3.95;;;3.63;;
5730;SDS011;2890;51.950;7.668;2022-08-25T06:45:41;6.63;;;4.10;;
5730;SDS011;2890;51.950;7.668;2022-08-25T06:48:09;5.55;;;3.40;;
5730;SDS011;2890;51.950;7.668;2022-08-25T06:50:36;5.78;;;3.65;;
5730;SDS011;2890;51.950;7.668;2022-08-25T06:53:04;3.70;;;3.38;;
5730;SDS011;2890;51.950;7.668;2022-08-25T06:55:31;4.45;;;3.60;;
5730;SDS011;2890;51.950;7.668;2022-08-25T06:57:59;8.32;;;3.67;;
5730;SDS011;2890;51.950;7.668;2022-08-25T07:00:28;4.05;;;3.63;;
5730;SDS011;2890;51.950;7.668;2022-08-25T07:02:55;5.22;;;3.72;;
5730;SDS011;2890;51.950;7.668;2022-08-25T07:05:22;6.22;;;3.20;;
5730;SDS011;2890;51.950;7.668;2022-08-25T07:07:49;5.35;;;3.70;;
5730;SDS011;2890;51.950;7.668;2022-08-25T07:10:16;5.30;;;3.20;;
5730;SDS011;2890;51.950;7.668;2022-08-25T07:12:43;3.90;;;3.53;;
5730;SDS011;2890;51.950;7.668;2022-08-25T07:15:10;4.82;;;3.67;;
5730;SDS011;2890;51.950;7.668;2022-08-25T07:17:38;4.10;;;3.70;;
5730;SDS011;2890;51.950;7.668;2022-08-25T07:20:05;6.82;;;3.65;;
5730;SDS011;2890;51.950;7.668;2022-08-25T07:22:33;10.63;;;4.63;;
5730;SDS011;2890;51.950;7.668;2022-08-25T07:25:00;7.88;;;3.95;;
5730;SDS011;2890;51.950;7.668;2022-08-25T07:27:27;9.25;;;4.53;;
5730;SDS011;2890;51.950;7.668;2022-08-25T07:29:55;3.85;;;3.50;;
5730;SDS011;2890;51.950;7.668;2022-08-25T07:32:22;5.97;;;4.10;;
5730;SDS011;2890;51.950;7.668;2022-08-25T07:34:51;5.90;;;3.55;;
5730;SDS011;2890;51.950;7.668;2022-08-25T07:37:32;5.13;;;3.72;;
5730;SDS011;2890;51.950;7.668;2022-08-25T07:40:00;5.82;;;4.00;;
5730;SDS011;2890;51.950;7.668;2022-08-25T07:42:28;8.13;;;3.78;;
5730;SDS011;2890;51.950;7.668;2022-08-25T07:44:55;11.07;;;4.10;;
5730;SDS011;2890;51.950;7.668;2022-08-25T07:47:22;6.00;;;4.07;;
5730;SDS011;2890;51.950;7.668;2022-08-25T07:49:50;6.07;;;3.70;;
5730;SDS011;2890;51.950;7.668;2022-08-25T07:52:17;3.90;;;3.50;;
5730;SDS011;2890;51.950;7.668;2022-08-25T07:54:44;3.95;;;3.40;;
5730;SDS011;2890;51.950;7.668;2022-08-25T07:57:11;4.82;;;3.53;;
5730;SDS011;2890;51.950;7.668;2022-08-25T07:59:39;8.43;;;4.10;;
5730;SDS011;2890;51.950;7.668;2022-08-25T08:02:07;4.13;;;3.50;;
5730;SDS011;2890;51.950;7.668;2022-08-25T08:04:34;5.13;;;3.60;;
5730;SDS011;2890;51.950;7.668;2022-08-25T08:07:03;4.32;;;3.70;;
5730;SDS011;2890;51.950;7.668;2022-08-25T08:09:31;5.95;;;3.75;;
5730;SDS011;2890;51.950;7.668;2022-08-25T08:11:58;7.35;;;3.55;;
5730;SDS011;2890;51.950;7.668;2022-08-25T08:14:25;5.50;;;3.50;;
5730;SDS011;2890;51.950;7.668;2022-08-25T08:16:52;3.78;;;3.25;;
5730;SDS011;2890;51.950;7.668;2022-08-25T08:19:19;7.30;;;3.58;;
5730;SDS011;2890;51.950;7.668;2022-08-25T08:21:46;5.07;;;3.75;;
5730;SDS011;2890;51.950;7.668;2022-08-25T08:24:16;7.53;;;3.92;;
5730;SDS011;2890;51.950;7.668;2022-08-25T08:26:43;6.35;;;3.90;;
5730;SDS011;2890;51.950;7.668;2022-08-25T08:29:10;4.60;;;3.50;;
5730;SDS011;2890;51.950;7.668;2022-08-25T08:31:37;5.53;;;3.60;;
5730;SDS011;2890;51.950;7.668;2022-08-25T08:34:04;4.40;;;3.58;;
5730;SDS011;2890;51.950;7.668;2022-08-25T08:36:31;6.55;;;4.05;;
5730;SDS011;2890;51.950;7.668;2022-08-25T08:38:58;5.25;;;3.50;;
5730;SDS011;2890;51.950;7.668;2022-08-25T08:41:33;5.25;;;3.97;;
5730;SDS011;2890;51.950;7.668;2022-08-25T08:44:22;4.72;;;3.80;;
5730;SDS011;2890;51.950;7.668;2022-08-25T08:46:54;5.07;;;3.70;;
5730;SDS011;2890;51.950;7.668;2022-08-25T08:49:25;5.07;;;4.05;;
5730;SDS011;2890;51.950;7.668;2022-08-25T08:51:55;4.55;;;3.65;;
5730;SDS011;2890;51.950;7.668;2022-08-25T08:54:24;6.82;;;3.90;;
5730;SDS011;2890;51.950;7.668;2022-08-25T08:56:55;4.93;;;3.42;;
5730;SDS011;2890;51.950;7.668;2022-08-25T08:59:25;6.05;;;3.70;;
5730;SDS011;2890;51.950;7.668;2022-08-25T09:01:54;5.50;;;3.42;;
5730;SDS011;2890;51.950;7.668;2022-08-25T09:04:25;5.32;;;3.75;;
5730;SDS011;2890;51.950;7.668;2022-08-25T09:06:53;7.10;;;3.92;;
5730;SDS011;2890;51.950;7.668;2022-08-25T09:09:23;5.57;;;4.50;;
5730;SDS011;2890;51.950;7.668;2022-08-25T09:11:54;5.40;;;3.47;;
5730;SDS011;2890;51.950;7.668;2022-08-25T09:14:41;3.95;;;3.40;;
5730;SDS011;2890;51.950;7.668;2022-08-25T09:17:10;5.30;;;3.75;;
5730;SDS011;2890;51.950;7.668;2022-08-25T09:19:51;4.15;;;3.45;;
5730;SDS011;2890;51.950;7.668;2022-08-25T09:22:25;5.75;;;3.88;;
5730;SDS011;2890;51.950;7.668;2022-08-25T09:24:55;5.35;;;3.53;;
5730;SDS011;2890;51.950;7.668;2022-08-25T09:27:24;5.20;;;3.67;;
5730;SDS011;2890;51.950;7.668;2022-08-25T09:29:58;7.75;;;3.22;;
5730;SDS011;2890;51.950;7.668;2022-08-25T09:32:26;3.58;;;2.95;;
5730;SDS011;2890;51.950;7.668;2022-08-25T09:34:54;6.75;;;3.30;;
5730;SDS011;2890;51.950;7.668;2022-08-25T09:37:21;4.85;;;3.35;;
5730;SDS011;2890;51.950;7.668;2022-08-25T09:39:49;5.28;;;3.63;;
5730;SDS011;2890;51.950;7.668;2022-08-25T09:42:17;3.92;;;2.90;;
5730;SDS011;2890;51.950;7.668;2022-08-25T09:44:45;4.13;;;3.17;;
5730;SDS011;2890;51.950;7.668;2022-08-25T09:47:18;5.72;;;3.20;;
5730;SDS011;2890;51.950;7.668;2022-08-25T09:49:47;3.42;;;2.92;;
5730;SDS011;2890;51.950;7.668;2022-08-25T09:52:20;4.00;;;2.47;;
5730;SDS011;2890;51.950;7.668;2022-08-25T09:54:47;3.88;;;2.80;;
5730;SDS011;2890;51.950;7.668;2022-08-25T09:57:26;8.95;;;3.22;;
5730;SDS011;2890;51.950;7.668;2022-08-25T09:59:53;4.32;;;2.92;;
5730;SDS011;2890;51.950;7.668;2022-08-25T10:02:23;3.60;;;2.85;;
5730;SDS011;2890;51.950;7.668;2022-08-25T10:04:50;3.50;;;3.15;;
5730;SDS011;2890;51.950;7.668;2022-08-25T10:07:19;4.68;;;3.20;;
5730;SDS011;2890;51.950;7.668;2022-08-25T10:09:50;4.93;;;2.95;;
5730;SDS011;2890;51.950;7.668;2022-08-25T10:12:19;5.20;;;2.90;;
5730;SDS011;2890;51.950;7.668;2022-08-25T10:14:48;4.95;;;3.75;;
5730;SDS011;2890;51.950;7.668;2022-08-25T10:17:16;4.65;;;2.97;;
5730;SDS011;2890;51.950;7.668;2022-08-25T10:19:50;4.07;;;3.35;;
5730;SDS011;2890;51.950;7.668;2022-08-25T10:22:20;3.92;;;3.47;;
5730;SDS011;2890;51.950;7.668;2022-08-25T10:24:50;4.93;;;3.40;;
5730;SDS011;2890;51.950;7.668;2022-08-25T10:27:19;3.85;;;3.28;;
5730;SDS011;2890;51.950;7.668;2022-08-25T10:29:55;4.28;;;3.63;;
5730;SDS011;2890;51.950;7.668;2022-08-25T10:32:26;6.03;;;3.30;;
5730;SDS011;2890;51.950;7.668;2022-08-25T10:34:58;4.18;;;3.00;;
5730;SDS011;2890;51.950;7.668;2022-08-25T10:37:31;4.60;;;3.42;;
5730;SDS011;2890;51.950;7.668;2022-08-25T10:40:06;5.20;;;3.40;;
5730;SDS011;2890;51.950;7.668;2022-08-25T10:42:35;3.65;;;3.38;;
5730;SDS011;2890;51.950;7.668;2022-08-25T10:45:08;4.00;;;3.60;;
5730;SDS011;2890;51.950;7.668;2022-08-25T10:50:45;4.13;;;3.53;;
5730;SDS011;2890;51.950;7.668;2022-08-25T10:53:15;5.97;;;3.85;;
5730;SDS011;2890;51.950;7.668;2022-08-25T10:55:47;3.92;;;3.53;;
5730;SDS011;2890;51.950;7.668;2022-08-25T10:58:19;7.20;;;3.60;;
5730;SDS011;2890;51.950;7.668;2022-08-25T11:00:51;6.00;;;3.53;;
5730;SDS011;2890;51.950;7.668;2022-08-25T11:03:24;3.67;;;3.38;;
5730;SDS011;2890;51.950;7.668;2022-08-25T11:05:58;4.90;;;3.55;;
5730;SDS011;2890;51.950;7.668;2022-08-25T11:08:33;5.47;;;3.63;;
5730;SDS011;2890;51.950;7.668;2022-08-25T11:11:03;5.05;;;3.38;;
5730;SDS011;2890;51.950;7.668;2022-08-25T11:13:36;6.72;;;3.60;;
5730;SDS011;2890;51.950;7.668;2022-08-25T11:16:05;3.47;;;3.15;;
5730;SDS011;2890;51.950;7.668;2022-08-25T11:18:43;4.32;;;3.35;;
5730;SDS011;2890;51.950;7.668;2022-08-25T11:21:13;5.75;;;3.65;;
5730;SDS011;2890;51.950;7.668;2022-08-25T11:23:43;3.28;;;2.97;;
5730;SDS011;2890;51.950;7.668;2022-08-25T11:26:12;7.20;;;3.58;;
5730;SDS011;2890;51.950;7.668;2022-08-25T11:28:45;6.00;;;3.28;;
5730;SDS011;2890;51.950;7.668;2022-08-25T11:31:14;3.78;;;3.35;;
5730;SDS011;2890;51.950;7.668;2022-08-25T11:33:42;3.85;;;3.05;;
5730;SDS011;2890;51.950;7.668;2022-08-25T11:36:13;5.00;;;3.90;;
5730;SDS011;2890;51.950;7.668;2022-08-25T11:38:44;5.43;;;3.70;;
5730;SDS011;2890;51.950;7.668;2022-08-25T11:41:18;4.07;;;3.33;;
5730;SDS011;2890;51.950;7.668;2022-08-25T11:43:51;5.00;;;4.05;;
5730;SDS011;2890;51.950;7.668;2022-08-25T11:46:29;4.00;;;3.58;;
5730;SDS011;2890;51.950;7.668;2022-08-25T11:49:07;6.80;;;3.65;;
5730;SDS011;2890;51.950;7.668;2022-08-25T11:51:41;7.35;;;4.57;;
5730;SDS011;2890;51.950;7.668;2022-08-25T11:54:16;5.00;;;3.58;;
5730;SDS011;2890;51.950;7.668;2022-08-25T11:56:50;6.10;;;3.42;;
5730;SDS011;2890;51.950;7.668;2022-08-25T12:01:59;5.35;;;3.47;;
5730;SDS011;2890;51.950;7.668;2022-08-25T12:04:31;6.00;;;4.18;;
5730;SDS011;2890;51.950;7.668;2022-08-25T12:07:16;4.90;;;3.75;;
5730;SDS011;2890;51.950;7.668;2022-08-25T12:15:21;5.07;;;3.40;;
5730;SDS011;2890;51.950;7.668;2022-08-25T12:23:14;5.80;;;3.65;;
5730;SDS011;2890;51.950;7.668;2022-08-25T12:25:43;3.50;;;3.22;;
5730;SDS011;2890;51.950;7.668;2022-08-25T12:28:18;5.13;;;3.67;;
5730;SDS011;2890;51.950;7.668;2022-08-25T12:30:51;5.03;;;3.75;;
5730;SDS011;2890;51.950;7.668;2022-08-25T12:33:23;7.47;;;4.70;;
5730;SDS011;2890;51.950;7.668;2022-08-25T12:35:55;4.75;;;3.85;;
5730;SDS011;2890;51.950;7.668;2022-08-25T12:38:29;6.18;;;3.90;;
5730;SDS011;2890;51.950;7.668;2022-08-25T12:40:59;6.22;;;3.63;;
5730;SDS011;2890;51.950;7.668;2022-08-25T12:43:28;4.60;;;3.47;;
5730;SDS011;2890;51.950;7.668;2022-08-25T12:48:52;5.72;;;4.30;;
5730;SDS011;2890;51.950;7.668;2022-08-25T12:51:21;7.00;;;3.88;;
5730;SDS011;2890;51.950;7.668;2022-08-25T12:53:50;5.07;;;4.28;;
5730;SDS011;2890;51.950;7.668;2022-08-25T12:56:20;5.45;;;3.72;;
5730;SDS011;2890;51.950;7.668;2022-08-25T12:58:49;4.95;;;3.92;;
5730;SDS011;2890;51.950;7.668;2022-08-25T13:01:19;6.65;;;3.70;;
5730;SDS011;2890;51.950;7.668;2022-08-25T13:03:56;4.65;;;4.25;;
5730;SDS011;2890;51.950;7.668;2022-08-25T13:06:30;4.90;;;4.22;;
5730;SDS011;2890;51.950;7.668;2022-08-25T13:11:47;6.68;;;4.43;;
5730;SDS011;2890;51.950;7.668;2022-08-25T13:14:17;5.47;;;3.80;;
5730;SDS011;2890;51.950;7.668;2022-08-25T13:16:51;5.00;;;4.57;;
5730;SDS011;2890;51.950;7.668;2022-08-25T13:19:19;4.90;;;4.38;;
5730;SDS011;2890;51.950;7.668;2022-08-25T13:21:46;7.95;;;3.97;;
5730;SDS011;2890;51.950;7.668;2022-08-25T13:24:15;7.68;;;3.75;;
5730;SDS011;2890;51.950;7.668;2022-08-25T13:26:44;6.50;;;4.28;;
5730;SDS011;2890;51.950;7.668;2022-08-25T13:29:16;4.93;;;4.40;;
5730;SDS011;2890;51.950;7.668;2022-08-25T13:31:53;7.10;;;3.95;;
5730;SDS011;2890;51.950;7.668;2022-08-25T13:34:21;4.88;;;3.67;;
5730;SDS011;2890;51.950;7.668;2022-08-25T13:36:49;5.30;;;4.15;;
5730;SDS011;2890;51.950;7.668;2022-08-25T13:39:34;4.32;;;3.88;;
5730;SDS011;2890;51.950;7.668;2022-08-25T13:42:02;4.57;;;4.18;;
5730;SDS011;2890;51.950;7.668;2022-08-25T13:44:34;5.47;;;3.90;;
5730;SDS011;2890;51.950;7.668;2022-08-25T13:47:07;6.55;;;4.00;;
5730;SDS011;2890;51.950;7.668;2022-08-25T13:49:34;5.63;;;3.70;;
5730;SDS011;2890;51.950;7.668;2022-08-25T13:52:02;5.05;;;3.95;;
5730;SDS011;2890;51.950;7.668;2022-08-25T13:54:33;5.55;;;4.00;;
5730;SDS011;2890;51.950;7.668;2022-08-25T13:57:05;4.95;;;4.18;;
5730;SDS011;2890;51.950;7.668;2022-08-25T13:59:35;4.80;;;4.30;;
5730;SDS011;2890;51.950;7.668;2022-08-25T14:02:03;5.00;;;4.20;;
5730;SDS011;2890;51.950;7.668;2022-08-25T14:04:31;4.55;;;4.18;;
5730;SDS011;2890;51.950;7.668;2022-08-25T14:07:06;5.85;;;4.55;;
5730;SDS011;2890;51.950;7.668;2022-08-25T14:09:37;6.60;;;3.95;;
5730;SDS011;2890;51.950;7.668;2022-08-25T14:12:05;4.47;;;4.07;;
5730;SDS011;2890;51.950;7.668;2022-08-25T14:14:32;4.78;;;4.35;;
5730;SDS011;2890;51.950;7.668;2022-08-25T14:17:03;4.45;;;4.05;;
5730;SDS011;2890;51.950;7.668;2022-08-25T14:19:31;6.00;;;4.22;;
5730;SDS011;2890;51.950;7.668;2022-08-25T14:21:58;7.63;;;4.53;;
5730;SDS011;2890;51.950;7.668;2022-08-25T14:24:27;5.85;;;4.60;;
5730;SDS011;2890;51.950;7.668;2022-08-25T14:26:57;8.18;;;4.43;;
5730;SDS011;2890;51.950;7.668;2022-08-25T14:29:24;6.55;;;4.80;;
5730;SDS011;2890;51.950;7.668;2022-08-25T14:31:51;7.32;;;4.35;;
5730;SDS011;2890;51.950;7.668;2022-08-25T14:34:20;5.43;;;4.82;;
5730;SDS011;2890;51.950;7.668;2022-08-25T14:36:49;4.93;;;4.50;;
5730;SDS011;2890;51.950;7.668;2022-08-25T14:39:16;6.30;;;4.70;;
5730;SDS011;2890;51.950;7.668;2022-08-25T14:41:44;4.90;;;4.40;;
5730;SDS011;2890;51.950;7.668;2022-08-25T14:44:11;4.90;;;4.38;;
5730;SDS011;2890;51.950;7.668;2022-08-25T14:46:40;8.18;;;4.68;;
5730;SDS011;2890;51.950;7.668;2022-08-25T14:49:10;6.93;;;4.32;;
5730;SDS011;2890;51.950;7.668;2022-08-25T14:51:39;5.60;;;4.90;;
5730;SDS011;2890;51.950;7.668;2022-08-25T14:54:08;5.03;;;4.53;;
5730;SDS011;2890;51.950;7.668;2022-08-25T14:56:37;13.48;;;5.00;;
5730;SDS011;2890;51.950;7.668;2022-08-25T14:59:04;7.15;;;4.50;;
5730;SDS011;2890;51.950;7.668;2022-08-25T15:01:31;6.60;;;4.60;;
5730;SDS011;2890;51.950;7.668;2022-08-25T15:04:00;6.22;;;4.65;;
5730;SDS011;2890;51.950;7.668;2022-08-25T15:06:28;8.15;;;4.88;;
5730;SDS011;2890;51.950;7.668;2022-08-25T15:08:56;6.35;;;4.97;;
5730;SDS011;2890;51.950;7.668;2022-08-25T15:11:35;4.95;;;4.55;;
5730;SDS011;2890;51.950;7.668;2022-08-25T15:14:02;7.78;;;5.20;;
5730;SDS011;2890;51.950;7.668;2022-08-25T15:16:31;6.47;;;5.13;;
5730;SDS011;2890;51.950;7.668;2022-08-25T15:18:59;7.80;;;4.65;;
5730;SDS011;2890;51.950;7.668;2022-08-25T15:21:26;7.32;;;4.40;;
5730;SDS011;2890;51.950;7.668;2022-08-25T15:23:56;5.28;;;4.57;;
5730;SDS011;2890;51.950;7.668;2022-08-25T15:26:24;5.32;;;4.78;;
5730;SDS011;2890;51.950;7.668;2022-08-25T15:28:51;6.28;;;4.13;;
5730;SDS011;2890;51.950;7.668;2022-08-25T15:31:19;4.88;;;4.47;;
5730;SDS011;2890;51.950;7.668;2022-08-25T15:33:47;7.03;;;4.30;;
5730;SDS011;2890;51.950;7.668;2022-08-25T15:36:15;5.80;;;4.80;;
5730;SDS011;2890;51.950;7.668;2022-08-25T15:38:42;5.95;;;5.07;;
5730;SDS011;2890;51.950;7.668;2022-08-25T15:41:11;5.55;;;4.88;;
5730;SDS011;2890;51.950;7.668;2022-08-25T15:43:38;6.47;;;4.70;;
5730;SDS011;2890;51.950;7.668;2022-08-25T15:46:07;5.15;;;4.65;;
5730;SDS011;2890;51.950;7.668;2022-08-25T15:48:38;6.28;;;5.07;;
5730;SDS011;2890;51.950;7.668;2022-08-25T15:51:05;5.43;;;4.80;;